Time;durP1;ratioP1;P1;durP2;ratioP2;P2;SDS_P1;SDS_P2;PMS_P1;PMS_P2;Temp;Humidity;BMP_temperature;BMP_pressure;BME280_temperature;BME280_humidity;BME280_pressure;Samples;Min_cycle;Max_cycle;Signal;HPM_P1;HPM_P2
2023/02/06 00:00:18;;;;;;;24.38;5.28;;;5.70;99.90;;;;;;5007764;28;20368;-68
2023/02/06 00:02:44;;;;;;;29.42;4.65;;;5.60;99.90;;;;;;5007035;28;20018;-68
2023/02/06 00:05:10;;;;;;;40.50;6.10;;;5.50;99.90;;;;;;4995461;28;20040;-68
2023/02/06 00:07:36;;;;;;;32.88;6.05;;;5.60;99.90;;;;;;5004732;28;20026;-68
2023/02/06 00:10:01;;;;;;;36.95;5.68;;;5.50;99.90;;;;;;5006647;28;20477;-68
2023/02/06 00:12:27;;;;;;;31.92;5.72;;;5.50;99.90;;;;;;5004788;28;20037;-68
2023/02/06 00:14:52;;;;;;;46.90;7.07;;;5.50;99.90;;;;;;5004050;28;20034;-68
2023/02/06 00:17:18;;;;;;;29.13;5.97;;;5.50;99.90;;;;;;5006227;28;20045;-68
2023/02/06 00:19:44;;;;;;;42.95;5.68;;;5.40;99.90;;;;;;5002495;28;20037;-68
2023/02/06 00:22:12;;;;;;;41.10;6.60;;;5.50;99.90;;;;;;5007732;28;20029;-68
2023/02/06 00:24:39;;;;;;;33.97;6.45;;;5.50;99.90;;;;;;5018149;28;20017;-68
2023/02/06 00:27:05;;;;;;;40.28;6.97;;;5.40;99.90;;;;;;5003383;28;20032;-68
2023/02/06 00:29:31;;;;;;;46.33;7.75;;;5.40;99.90;;;;;;5006423;28;20053;-68
2023/02/06 00:31:57;;;;;;;45.50;6.47;;;5.40;99.90;;;;;;5006952;28;20463;-69
2023/02/06 00:34:22;;;;;;;33.67;6.07;;;5.50;99.90;;;;;;5000744;28;20029;-68
2023/02/06 00:36:50;;;;;;;39.72;5.82;;;5.50;99.90;;;;;;5005789;28;20073;-68
2023/02/06 00:39:16;;;;;;;29.42;6.30;;;5.50;99.90;;;;;;5006752;28;20038;-68
2023/02/06 00:41:42;;;;;;;33.45;5.63;;;5.40;99.90;;;;;;5002795;28;20033;-68
2023/02/06 00:44:08;;;;;;;32.28;5.78;;;5.40;99.90;;;;;;5002375;28;20037;-67
2023/02/06 00:46:33;;;;;;;41.35;5.85;;;5.40;99.90;;;;;;5007912;28;20026;-68
2023/02/06 00:48:59;;;;;;;30.88;5.80;;;5.40;99.90;;;;;;5004703;28;20033;-68
2023/02/06 00:51:25;;;;;;;45.70;6.75;;;5.40;99.90;;;;;;5001344;28;20120;-68
2023/02/06 00:53:51;;;;;;;37.65;6.20;;;5.40;99.90;;;;;;5005367;28;20040;-68
2023/02/06 00:56:16;;;;;;;39.83;6.82;;;5.40;99.90;;;;;;5004204;28;20033;-68
2023/02/06 00:58:42;;;;;;;34.13;6.45;;;5.40;99.90;;;;;;5002312;28;20129;-68
2023/02/06 01:01:07;;;;;;;42.85;6.45;;;5.40;99.90;;;;;;5004514;28;20251;-68
2023/02/06 01:03:33;;;;;;;32.47;5.75;;;5.40;99.90;;;;;;5004512;28;20046;-68
2023/02/06 01:05:59;;;;;;;43.20;6.22;;;5.40;99.90;;;;;;5001498;28;20018;-68
2023/02/06 01:08:24;;;;;;;37.10;5.90;;;5.30;99.90;;;;;;5000719;28;20143;-68
2023/02/06 01:10:50;;;;;;;41.75;7.22;;;5.40;99.90;;;;;;5006271;28;20030;-68
2023/02/06 01:13:15;;;;;;;35.20;6.53;;;5.40;99.90;;;;;;5001113;28;20040;-68
2023/02/06 01:15:41;;;;;;;49.83;6.50;;;5.30;99.90;;;;;;5021889;28;20060;-68
2023/02/06 01:18:07;;;;;;;34.58;5.75;;;5.30;99.90;;;;;;5002304;28;20215;-69
2023/02/06 01:20:32;;;;;;;33.47;5.95;;;5.30;99.90;;;;;;5008162;28;20398;-68
2023/02/06 01:22:58;;;;;;;50.40;6.53;;;5.30;99.90;;;;;;5005643;28;20026;-68
2023/02/06 01:25:23;;;;;;;37.38;6.70;;;5.30;99.90;;;;;;5007691;28;20034;-68
2023/02/06 01:27:49;;;;;;;36.20;6.57;;;5.20;99.90;;;;;;5008912;28;20023;-68
2023/02/06 01:30:15;;;;;;;45.22;10.32;;;5.20;99.90;;;;;;5003958;28;20034;-68
2023/02/06 01:32:41;;;;;;;111.80;32.85;;;5.10;99.90;;;;;;5009808;28;20030;-68
2023/02/06 01:35:08;;;;;;;72.40;22.00;;;5.10;99.90;;;;;;5006381;28;20037;-68
2023/02/06 01:37:35;;;;;;;44.63;12.18;;;5.20;99.90;;;;;;5007980;28;20021;-67
2023/02/06 01:40:01;;;;;;;43.83;7.05;;;5.20;99.90;;;;;;5007135;28;20062;-68
2023/02/06 01:42:26;;;;;;;29.38;6.03;;;5.10;99.90;;;;;;5011404;28;20437;-68
2023/02/06 01:45:20;;;;;;;39.25;5.75;;;5.10;99.90;;;;;;5014763;28;20037;-68
2023/02/06 01:47:46;;;;;;;35.47;7.25;;;5.00;99.90;;;;;;5008087;28;20029;-67
2023/02/06 01:50:11;;;;;;;27.00;5.90;;;5.10;99.90;;;;;;5006415;28;20426;-68
2023/02/06 01:52:37;;;;;;;42.42;6.20;;;5.00;99.90;;;;;;5011006;28;20022;-68
2023/02/06 01:55:06;;;;;;;36.58;6.90;;;5.00;99.90;;;;;;5007838;28;20094;-68
2023/02/06 01:57:33;;;;;;;30.90;6.30;;;4.90;99.90;;;;;;5014484;28;20368;-69
2023/02/06 02:00:05;;;;;;;32.28;5.45;;;5.00;99.90;;;;;;5011442;28;20049;-68
2023/02/06 02:02:32;;;;;;;30.38;6.00;;;5.00;99.90;;;;;;5009343;28;20069;-68
2023/02/06 02:05:00;;;;;;;33.78;6.45;;;4.90;99.90;;;;;;5008405;28;20034;-68
2023/02/06 02:07:31;;;;;;;33.38;6.70;;;5.00;99.90;;;;;;5009260;28;20503;-68
2023/02/06 02:09:57;;;;;;;37.97;6.85;;;5.00;99.90;;;;;;5014265;28;20386;-68
2023/02/06 02:12:22;;;;;;;39.05;6.50;;;4.90;99.90;;;;;;5006688;28;20029;-68
2023/02/06 02:14:50;;;;;;;34.55;6.53;;;4.90;99.90;;;;;;5012339;28;20036;-68
2023/02/06 02:17:45;;;;;;;39.05;6.85;;;4.90;99.90;;;;;;5003775;28;20036;-68
2023/02/06 02:20:55;;;;;;;33.70;6.32;;;4.90;99.90;;;;;;5010196;28;20042;-68
2023/02/06 02:23:35;;;;;;;29.30;5.32;;;5.00;99.90;;;;;;5010048;28;20029;-68
2023/02/06 02:26:23;;;;;;;30.23;5.57;;;4.90;99.90;;;;;;5007753;28;20049;-67
2023/02/06 02:29:16;;;;;;;30.30;5.35;;;4.90;99.90;;;;;;5006595;28;20026;-68
2023/02/06 02:32:13;;;;;;;24.65;4.43;;;4.90;99.90;;;;;;5006748;28;20030;-68
2023/02/06 02:35:19;;;;;;;24.08;5.40;;;4.80;99.90;;;;;;5006780;28;20100;-68
2023/02/06 02:38:05;;;;;;;21.10;5.03;;;4.80;99.90;;;;;;5006590;28;20056;-68
2023/02/06 02:40:52;;;;;;;32.13;6.55;;;4.80;99.90;;;;;;4986111;28;20117;-68
2023/02/06 02:43:46;;;;;;;31.05;6.32;;;4.70;99.90;;;;;;5011320;28;20041;-69
2023/02/06 02:46:41;;;;;;;35.20;7.22;;;4.70;99.90;;;;;;5009197;28;20029;-69
2023/02/06 02:49:17;;;;;;;35.97;6.40;;;4.70;99.90;;;;;;5008999;28;20030;-68
2023/02/06 02:51:44;;;;;;;44.67;6.88;;;4.60;99.90;;;;;;5004270;28;20054;-69
2023/02/06 02:54:09;;;;;;;36.72;7.32;;;4.60;99.90;;;;;;5012984;28;20482;-68
2023/02/06 02:56:36;;;;;;;43.70;6.88;;;4.70;99.90;;;;;;5009730;28;20022;-69
2023/02/06 02:59:03;;;;;;;32.30;7.00;;;4.70;99.90;;;;;;5011106;28;20037;-69
2023/02/06 03:01:34;;;;;;;35.92;6.32;;;4.70;99.90;;;;;;5010685;28;20018;-69
2023/02/06 03:04:05;;;;;;;43.65;8.43;;;4.70;99.90;;;;;;5011452;28;20037;-68
2023/02/06 03:07:05;;;;;;;36.67;7.50;;;4.70;99.90;;;;;;5006536;28;20030;-69
2023/02/06 03:09:55;;;;;;;48.53;8.30;;;4.70;99.90;;;;;;5023811;28;20026;-69
2023/02/06 03:12:39;;;;;;;32.78;7.15;;;4.70;99.90;;;;;;5008069;28;20022;-69
2023/02/06 03:15:24;;;;;;;44.88;7.65;;;4.70;99.90;;;;;;5015229;28;20028;-69
2023/02/06 03:17:58;;;;;;;39.92;7.18;;;4.70;99.90;;;;;;5006814;28;20070;-69
2023/02/06 03:20:24;;;;;;;39.90;7.90;;;4.70;99.90;;;;;;5009206;28;20049;-69
2023/02/06 03:22:51;;;;;;;53.20;8.43;;;4.80;99.90;;;;;;5010715;28;20041;-69
2023/02/06 03:25:24;;;;;;;46.65;7.40;;;4.70;99.90;;;;;;5006873;28;20029;-69
2023/02/06 03:27:52;;;;;;;45.42;8.13;;;4.70;99.90;;;;;;5012937;28;20014;-69
2023/02/06 03:30:21;;;;;;;44.17;8.00;;;4.70;99.90;;;;;;5007117;28;20483;-69
2023/02/06 03:32:51;;;;;;;48.42;8.75;;;4.80;99.90;;;;;;5006358;28;20042;-68
2023/02/06 03:35:21;;;;;;;53.70;8.40;;;4.80;99.90;;;;;;5005860;28;20788;-69
2023/02/06 03:37:47;;;;;;;48.47;9.23;;;4.80;99.90;;;;;;5011448;28;20041;-69
2023/02/06 03:40:14;;;;;;;50.08;8.82;;;4.80;99.90;;;;;;5005115;28;20508;-68
2023/02/06 03:42:44;;;;;;;35.22;8.63;;;4.80;99.90;;;;;;5008919;28;20464;-69
2023/02/06 03:45:32;;;;;;;55.28;9.02;;;4.80;99.90;;;;;;5014907;28;20022;-68
2023/02/06 03:48:05;;;;;;;46.88;8.00;;;4.80;99.90;;;;;;5009303;28;20036;-68
2023/02/06 03:50:34;;;;;;;54.20;9.00;;;4.80;99.90;;;;;;5003601;28;20520;-69
2023/02/06 03:53:02;;;;;;;57.05;8.77;;;4.80;99.90;;;;;;5009679;28;20528;-69
2023/02/06 03:55:29;;;;;;;56.47;8.25;;;4.90;99.90;;;;;;5011095;28;20030;-69
2023/02/06 03:58:05;;;;;;;67.07;10.07;;;4.90;99.90;;;;;;5006027;28;20026;-68
2023/02/06 04:00:31;;;;;;;65.30;8.70;;;4.80;99.90;;;;;;5009319;28;20181;-68
2023/02/06 04:02:58;;;;;;;43.33;8.82;;;4.90;99.90;;;;;;5009458;28;20058;-69
2023/02/06 04:05:24;;;;;;;57.38;10.48;;;4.80;99.90;;;;;;5009414;28;20467;-69
2023/02/06 04:07:51;;;;;;;56.03;9.93;;;4.90;99.90;;;;;;5008691;28;20017;-69
2023/02/06 04:10:17;;;;;;;52.25;8.98;;;4.90;99.90;;;;;;5004173;28;20018;-70
2023/02/06 04:12:43;;;;;;;54.15;9.07;;;4.90;99.90;;;;;;5009710;28;20064;-69
2023/02/06 04:15:08;;;;;;;59.45;8.73;;;4.90;99.90;;;;;;5007269;28;20112;-69
2023/02/06 04:17:34;;;;;;;61.70;9.20;;;4.90;99.90;;;;;;5005261;28;20036;-69
2023/02/06 04:20:00;;;;;;;52.05;9.45;;;5.00;99.90;;;;;;5012173;28;20030;-69
2023/02/06 04:22:26;;;;;;;49.08;9.65;;;5.00;99.90;;;;;;5005274;28;20045;-69
2023/02/06 04:24:51;;;;;;;52.05;9.40;;;5.00;99.90;;;;;;5010536;28;20030;-69
2023/02/06 04:27:17;;;;;;;59.50;10.05;;;5.00;99.90;;;;;;5004171;28;20054;-69
2023/02/06 04:29:42;;;;;;;72.35;9.40;;;5.00;99.90;;;;;;5008194;28;20116;-69
2023/02/06 04:32:08;;;;;;;84.13;9.73;;;5.00;99.90;;;;;;5004779;28;20476;-69
2023/02/06 04:34:35;;;;;;;64.50;9.80;;;5.00;99.90;;;;;;5005506;28;20073;-69
2023/02/06 04:37:02;;;;;;;70.88;9.32;;;4.90;99.90;;;;;;5006107;28;20556;-69
2023/02/06 04:39:29;;;;;;;57.25;8.32;;;5.00;99.90;;;;;;5008617;28;20491;-69
2023/02/06 04:41:54;;;;;;;66.00;8.90;;;4.90;99.90;;;;;;5012433;28;20041;-69
2023/02/06 04:44:21;;;;;;;58.08;8.73;;;4.90;99.90;;;;;;5005034;28;20026;-69
2023/02/06 04:46:47;;;;;;;60.95;9.02;;;5.00;99.90;;;;;;5010329;28;20449;-69
2023/02/06 04:49:13;;;;;;;50.90;8.57;;;5.00;99.90;;;;;;5005643;28;20026;-70
2023/02/06 04:51:39;;;;;;;51.90;9.50;;;5.00;99.90;;;;;;5010723;28;20397;-69
2023/02/06 04:54:05;;;;;;;50.47;8.05;;;4.90;99.90;;;;;;5009602;28;20046;-69
2023/02/06 04:56:31;;;;;;;63.67;9.23;;;4.90;99.90;;;;;;5006510;28;20045;-69
2023/02/06 04:58:57;;;;;;;60.50;8.90;;;4.90;99.90;;;;;;5010604;28;20409;-69
2023/02/06 05:01:23;;;;;;;62.67;9.63;;;4.80;99.90;;;;;;5004873;28;20018;-69
2023/02/06 05:03:48;;;;;;;62.80;8.80;;;4.80;99.90;;;;;;5011192;28;20372;-69
2023/02/06 05:06:15;;;;;;;73.30;9.65;;;4.80;99.90;;;;;;5002095;28;20490;-69
2023/02/06 05:08:41;;;;;;;61.15;10.07;;;4.80;99.90;;;;;;5009431;28;20036;-69
2023/02/06 05:11:06;;;;;;;70.40;10.32;;;4.80;99.90;;;;;;5003947;28;20018;-69
2023/02/06 05:13:33;;;;;;;79.68;9.05;;;4.70;99.90;;;;;;5011139;28;20040;-69
2023/02/06 05:16:11;;;;;;;71.88;9.68;;;4.80;99.90;;;;;;5010395;28;20030;-69
2023/02/06 05:18:37;;;;;;;94.50;10.82;;;4.70;99.90;;;;;;5008567;28;20038;-69
2023/02/06 05:21:03;;;;;;;96.13;10.60;;;4.70;99.90;;;;;;5014136;28;20030;-69
2023/02/06 05:23:29;;;;;;;82.10;10.57;;;4.70;99.90;;;;;;5014542;28;20022;-68
2023/02/06 05:25:55;;;;;;;52.50;8.23;;;4.60;99.90;;;;;;5011181;28;20735;-69
2023/02/06 05:28:21;;;;;;;70.65;10.00;;;4.60;99.90;;;;;;5010564;28;20029;-69
2023/02/06 05:30:47;;;;;;;60.78;9.70;;;4.50;99.90;;;;;;5013950;28;20034;-69
2023/02/06 05:33:12;;;;;;;59.05;8.52;;;4.50;99.90;;;;;;5010777;28;20033;-68
2023/02/06 05:35:38;;;;;;;61.50;8.30;;;4.50;99.90;;;;;;5013415;28;20042;-68
2023/02/06 05:38:04;;;;;;;49.65;8.73;;;4.50;99.90;;;;;;5008679;28;20370;-68
2023/02/06 05:40:30;;;;;;;58.10;9.05;;;4.50;99.90;;;;;;5013939;28;20034;-69
2023/02/06 05:42:56;;;;;;;53.65;10.27;;;4.50;99.90;;;;;;5009162;28;20065;-69
2023/02/06 05:45:23;;;;;;;48.92;9.20;;;4.40;99.90;;;;;;5014741;28;20033;-68
2023/02/06 05:47:48;;;;;;;44.85;7.53;;;4.40;99.90;;;;;;5007929;28;20127;-68
2023/02/06 05:50:14;;;;;;;60.60;7.72;;;4.50;99.90;;;;;;5012214;28;20486;-69
2023/02/06 05:52:40;;;;;;;91.43;9.85;;;4.40;99.90;;;;;;5010675;28;20547;-68
2023/02/06 05:55:07;;;;;;;63.90;9.27;;;4.30;99.90;;;;;;5010937;28;20026;-69
2023/02/06 05:57:32;;;;;;;76.85;10.18;;;4.30;99.90;;;;;;5015286;28;20557;-69
2023/02/06 05:59:58;;;;;;;61.47;8.45;;;4.30;99.90;;;;;;5012088;28;20148;-68
2023/02/06 06:02:23;;;;;;;57.50;8.07;;;4.30;99.90;;;;;;5015102;28;20079;-68
2023/02/06 06:04:49;;;;;;;48.53;7.72;;;4.30;99.90;;;;;;5006899;28;20032;-69
2023/02/06 06:07:15;;;;;;;33.47;8.27;;;4.30;99.90;;;;;;5011581;28;20087;-68
2023/02/06 06:09:40;;;;;;;36.63;8.00;;;4.20;99.90;;;;;;5010814;28;20038;-69
2023/02/06 06:12:06;;;;;;;69.53;9.02;;;4.30;99.90;;;;;;5008736;28;20026;-69
2023/02/06 06:14:31;;;;;;;64.60;9.60;;;4.30;99.90;;;;;;5015500;28;20058;-69
2023/02/06 06:16:57;;;;;;;44.28;8.52;;;4.30;99.90;;;;;;5011892;28;20422;-69
2023/02/06 06:19:23;;;;;;;47.72;7.78;;;4.20;99.90;;;;;;5011223;28;20104;-69
2023/02/06 06:21:48;;;;;;;45.40;6.93;;;4.20;99.90;;;;;;5011216;28;20108;-68
2023/02/06 06:24:14;;;;;;;34.92;7.13;;;4.20;99.90;;;;;;5015970;28;20069;-69
2023/02/06 06:26:40;;;;;;;32.50;6.80;;;4.20;99.90;;;;;;5011093;28;20068;-69
2023/02/06 06:29:05;;;;;;;34.75;6.28;;;4.20;99.90;;;;;;5011667;28;20031;-68
2023/02/06 06:31:31;;;;;;;25.83;6.43;;;4.20;99.90;;;;;;5017110;28;20105;-69
2023/02/06 06:33:56;;;;;;;26.67;5.63;;;4.20;99.90;;;;;;5005541;28;20445;-68
2023/02/06 06:36:22;;;;;;;22.30;5.70;;;4.20;99.90;;;;;;5009226;28;20061;-69
2023/02/06 06:38:48;;;;;;;30.13;6.50;;;4.20;99.90;;;;;;5015446;28;20033;-69
2023/02/06 06:41:13;;;;;;;40.92;7.60;;;4.30;99.90;;;;;;5008486;28;20030;-69
2023/02/06 06:43:39;;;;;;;34.55;8.25;;;4.30;99.90;;;;;;5010870;28;20073;-69
2023/02/06 06:46:05;;;;;;;36.78;7.85;;;4.20;99.90;;;;;;5008886;28;20029;-69
2023/02/06 06:48:31;;;;;;;45.03;10.07;;;4.30;99.90;;;;;;5012220;28;20371;-69
2023/02/06 06:50:57;;;;;;;41.40;8.65;;;4.30;99.90;;;;;;5013444;28;20027;-68
2023/02/06 06:53:22;;;;;;;55.42;10.82;;;4.30;99.90;;;;;;5010937;28;20471;-68
2023/02/06 06:55:48;;;;;;;49.55;11.15;;;4.20;99.90;;;;;;5008495;28;20105;-69
2023/02/06 06:58:14;;;;;;;53.30;12.57;;;4.20;99.90;;;;;;5009378;28;20038;-69
2023/02/06 07:00:40;;;;;;;113.30;17.33;;;4.20;99.90;;;;;;5011868;28;20128;-69
2023/02/06 07:03:06;;;;;;;56.00;12.35;;;4.20;99.90;;;;;;5009513;28;20026;-68
2023/02/06 07:05:32;;;;;;;48.10;11.10;;;4.20;99.90;;;;;;5012777;28;20374;-68
2023/02/06 07:07:58;;;;;;;38.35;11.18;;;4.30;99.90;;;;;;5010172;28;20029;-68
2023/02/06 07:10:24;;;;;;;50.15;11.10;;;4.30;99.90;;;;;;5008221;28;20033;-68
2023/02/06 07:12:52;;;;;;;52.40;11.38;;;4.30;99.90;;;;;;5010653;28;20491;-69
2023/02/06 07:15:18;;;;;;;33.13;10.00;;;4.30;99.90;;;;;;5010009;28;20029;-69
2023/02/06 07:17:44;;;;;;;50.95;10.35;;;4.40;99.90;;;;;;5010830;28;20041;-68
2023/02/06 07:20:11;;;;;;;40.42;10.32;;;4.40;99.90;;;;;;5008395;28;20037;-69
2023/02/06 07:22:36;;;;;;;29.70;9.68;;;4.40;99.90;;;;;;5009203;28;20053;-68
2023/02/06 07:25:02;;;;;;;30.13;8.57;;;4.40;99.90;;;;;;5008423;28;20030;-69
2023/02/06 07:27:28;;;;;;;32.45;9.35;;;4.50;99.90;;;;;;5005238;28;20484;-68
2023/02/06 07:29:54;;;;;;;29.58;8.52;;;4.50;99.90;;;;;;5013606;28;20026;-69
2023/02/06 07:32:19;;;;;;;31.73;9.90;;;4.50;99.90;;;;;;5005887;28;20474;-69
2023/02/06 07:34:45;;;;;;;50.58;10.52;;;4.50;99.90;;;;;;5009949;28;20037;-69
2023/02/06 07:37:10;;;;;;;24.92;8.52;;;4.60;99.90;;;;;;5006850;28;20121;-68
2023/02/06 07:39:36;;;;;;;39.55;8.60;;;4.50;99.90;;;;;;5008792;28;20597;-69
2023/02/06 07:42:03;;;;;;;30.90;8.45;;;4.60;99.90;;;;;;5012848;28;20021;-69
2023/02/06 07:44:28;;;;;;;38.13;9.45;;;4.60;99.90;;;;;;5006076;28;20050;-69
2023/02/06 07:46:54;;;;;;;35.72;9.27;;;4.50;99.90;;;;;;5007311;28;20107;-69
2023/02/06 07:49:20;;;;;;;39.28;10.32;;;4.50;99.90;;;;;;5008980;28;20037;-69
2023/02/06 07:51:45;;;;;;;30.98;8.98;;;4.60;99.90;;;;;;5003365;28;20097;-69
2023/02/06 07:54:11;;;;;;;41.80;8.98;;;4.60;99.90;;;;;;5011066;28;20041;-68
2023/02/06 07:56:38;;;;;;;24.58;9.00;;;4.70;99.90;;;;;;5004918;28;20022;-69
2023/02/06 07:59:04;;;;;;;29.33;9.23;;;4.70;99.90;;;;;;5008546;28;20241;-69
2023/02/06 08:01:30;;;;;;;23.17;8.48;;;4.70;99.90;;;;;;5010799;28;20029;-69
2023/02/06 08:03:56;;;;;;;26.92;8.10;;;4.70;99.90;;;;;;5010725;28;20038;-68
2023/02/06 08:06:22;;;;;;;32.72;8.68;;;4.80;99.90;;;;;;5011900;28;20053;-68
2023/02/06 08:08:48;;;;;;;24.10;8.52;;;4.80;99.90;;;;;;5006251;28;20084;-69
2023/02/06 08:11:18;;;;;;;24.80;8.98;;;4.90;99.90;;;;;;5009652;28;20026;-68
2023/02/06 08:13:45;;;;;;;19.30;7.47;;;4.90;99.90;;;;;;5013420;28;20120;-68
2023/02/06 08:16:16;;;;;;;42.42;8.73;;;4.90;99.90;;;;;;5005334;28;20081;-70
2023/02/06 08:18:42;;;;;;;26.42;7.07;;;5.00;99.90;;;;;;5011996;28;20056;-70
2023/02/06 08:21:14;;;;;;;24.50;6.53;;;5.00;99.90;;;;;;5009187;28;20088;-70
2023/02/06 08:23:40;;;;;;;18.92;6.57;;;5.00;99.90;;;;;;5013227;28;20495;-70
2023/02/06 08:26:16;;;;;;;15.55;5.90;;;5.00;99.90;;;;;;5009847;28;20022;-70
2023/02/06 08:28:44;;;;;;;19.95;6.93;;;5.00;99.90;;;;;;5006552;28;20189;-71
2023/02/06 08:31:17;;;;;;;20.23;7.03;;;5.00;99.90;;;;;;5008335;28;20500;-70
2023/02/06 08:33:44;;;;;;;26.88;7.88;;;5.10;99.90;;;;;;5013184;28;20034;-70
2023/02/06 08:36:11;;;;;;;12.40;7.18;;;5.10;99.90;;;;;;5002782;28;20029;-70
2023/02/06 08:38:37;;;;;;;26.55;7.88;;;5.10;99.90;;;;;;5012688;28;20549;-70
2023/02/06 08:41:04;;;;;;;16.17;6.60;;;5.10;99.90;;;;;;5006073;28;20117;-70
2023/02/06 08:43:30;;;;;;;18.40;6.97;;;5.10;99.90;;;;;;5011300;28;20029;-71
2023/02/06 08:45:58;;;;;;;25.23;8.68;;;5.20;99.90;;;;;;5005224;28;20034;-70
2023/02/06 08:48:24;;;;;;;18.20;7.90;;;5.10;99.90;;;;;;5010250;28;20533;-70
2023/02/06 08:50:50;;;;;;;24.23;7.75;;;5.20;99.90;;;;;;5008917;28;20386;-71
2023/02/06 08:53:16;;;;;;;13.57;7.53;;;5.30;99.90;;;;;;5014172;28;20018;-70
2023/02/06 08:55:41;;;;;;;18.70;7.88;;;5.30;99.90;;;;;;4994746;28;20041;-70
2023/02/06 08:58:07;;;;;;;25.30;7.82;;;5.40;99.90;;;;;;4996955;28;20114;-69
2023/02/06 09:00:33;;;;;;;19.40;7.28;;;5.40;99.90;;;;;;5010162;28;20417;-71
2023/02/06 09:02:58;;;;;;;15.07;7.78;;;5.40;99.90;;;;;;5009898;28;20470;-70
2023/02/06 09:05:24;;;;;;;15.68;8.02;;;5.50;99.90;;;;;;5007033;28;20053;-70
2023/02/06 09:07:49;;;;;;;13.57;7.65;;;5.50;99.90;;;;;;5003252;28;20041;-70
2023/02/06 09:10:15;;;;;;;16.13;8.30;;;5.50;99.90;;;;;;5006670;28;20026;-70
2023/02/06 09:12:41;;;;;;;16.13;8.02;;;5.60;99.90;;;;;;5005148;28;20160;-71
2023/02/06 09:15:07;;;;;;;24.25;8.95;;;5.70;99.90;;;;;;5010572;28;20034;-71
2023/02/06 09:17:33;;;;;;;11.48;7.32;;;5.70;99.90;;;;;;5011002;28;20025;-70
2023/02/06 09:19:59;;;;;;;20.77;8.40;;;5.60;99.90;;;;;;5002891;28;20073;-71
2023/02/06 09:22:25;;;;;;;29.67;9.00;;;5.70;99.90;;;;;;5007543;28;20030;-71
2023/02/06 09:24:50;;;;;;;18.92;8.30;;;5.80;99.90;;;;;;5006454;28;20052;-71
2023/02/06 09:27:16;;;;;;;25.23;8.23;;;5.90;99.90;;;;;;5006138;28;20025;-71
2023/02/06 09:29:42;;;;;;;25.85;9.88;;;5.90;99.90;;;;;;5010829;28;20034;-71
2023/02/06 09:32:07;;;;;;;20.33;9.40;;;5.80;99.90;;;;;;5006955;28;20053;-70
2023/02/06 09:34:33;;;;;;;30.48;10.38;;;5.80;99.90;;;;;;5025368;28;20567;-70
2023/02/06 09:37:03;;;;;;;21.55;9.15;;;5.80;99.90;;;;;;5008734;28;20026;-70
2023/02/06 09:39:29;;;;;;;19.17;9.32;;;6.00;99.90;;;;;;5010147;28;20069;-70
2023/02/06 09:42:02;;;;;;;20.17;9.75;;;6.10;99.90;;;;;;5008630;28;20068;-70
2023/02/06 09:44:33;;;;;;;39.78;12.18;;;6.20;99.90;;;;;;5009570;28;20026;-70
2023/02/06 09:47:05;;;;;;;23.48;10.18;;;6.20;99.90;;;;;;4997494;28;20026;-70
2023/02/06 09:49:45;;;;;;;31.23;11.90;;;6.30;99.90;;;;;;5006900;28;20053;-70
2023/02/06 09:52:29;;;;;;;29.40;11.88;;;6.40;99.90;;;;;;5010013;28;20474;-70
2023/02/06 09:55:16;;;;;;;27.02;10.93;;;6.40;99.90;;;;;;5008915;28;20026;-69
2023/02/06 09:58:06;;;;;;;32.72;11.48;;;6.50;99.90;;;;;;5005497;28;20486;-69
2023/02/06 10:00:40;;;;;;;36.47;11.43;;;6.70;99.90;;;;;;5009526;28;20117;-69
2023/02/06 10:03:37;;;;;;;28.00;10.40;;;6.70;99.90;;;;;;5004135;28;20030;-69
2023/02/06 10:06:18;;;;;;;38.58;12.27;;;6.90;99.90;;;;;;5007126;28;20030;-70
2023/02/06 10:08:52;;;;;;;39.42;12.18;;;7.00;99.90;;;;;;5011397;28;20068;-70
2023/02/06 10:11:37;;;;;;;38.13;11.82;;;7.00;99.90;;;;;;5009593;28;20398;-70
2023/02/06 10:14:10;;;;;;;37.90;9.38;;;7.10;99.90;;;;;;5006192;28;20026;-70
2023/02/06 10:16:43;;;;;;;41.40;10.15;;;6.90;99.90;;;;;;5010256;28;20363;-70
2023/02/06 10:19:20;;;;;;;35.60;9.65;;;6.90;99.90;;;;;;5010170;28;20034;-70
2023/02/06 10:21:54;;;;;;;31.95;10.00;;;6.90;99.90;;;;;;5008839;28;20053;-69
2023/02/06 10:24:46;;;;;;;39.63;11.18;;;7.00;99.90;;;;;;5004048;28;20021;-71
2023/02/06 10:27:13;;;;;;;32.35;11.20;;;7.00;99.90;;;;;;5008700;28;20029;-70
2023/02/06 10:29:41;;;;;;;30.38;11.43;;;7.10;99.90;;;;;;5008267;28;20474;-70
2023/02/06 10:32:25;;;;;;;22.67;9.88;;;7.10;99.90;;;;;;5006117;28;20022;-70
2023/02/06 10:35:28;;;;;;;31.58;10.13;;;7.20;99.90;;;;;;5007460;28;20049;-70
2023/02/06 10:38:04;;;;;;;33.33;10.88;;;7.20;99.90;;;;;;5005173;28;20513;-71
2023/02/06 10:40:46;;;;;;;30.67;10.85;;;7.40;99.90;;;;;;5008999;28;20128;-70
2023/02/06 10:43:23;;;;;;;29.98;10.07;;;7.40;99.90;;;;;;5021126;28;20598;-67
2023/02/06 10:46:07;;;;;;;35.75;10.88;;;7.40;99.90;;;;;;5007206;28;20030;-68
2023/02/06 10:48:45;;;;;;;39.08;11.32;;;7.40;99.90;;;;;;5002227;28;20133;-68
2023/02/06 10:51:13;;;;;;;34.53;13.25;;;7.30;99.90;;;;;;5008859;28;20116;-69
2023/02/06 10:53:52;;;;;;;46.75;16.35;;;7.20;99.90;;;;;;5005213;28;20556;-69
2023/02/06 10:56:23;;;;;;;54.70;19.67;;;7.20;99.90;;;;;;5006924;28;20030;-70
2023/02/06 10:58:57;;;;;;;50.80;21.02;;;7.10;99.90;;;;;;5006779;28;20042;-69
2023/02/06 11:01:25;;;;;;;49.70;22.30;;;7.00;99.90;;;;;;4998661;28;20036;-69
2023/02/06 11:04:03;;;;;;;61.63;24.85;;;7.00;99.90;;;;;;5003142;28;20061;-69
2023/02/06 11:06:29;;;;;;;66.55;25.92;;;6.90;99.90;;;;;;5004484;28;20041;-69
2023/02/06 11:08:55;;;;;;;65.05;23.92;;;6.90;99.90;;;;;;5004573;28;20490;-69
2023/02/06 11:11:23;;;;;;;60.60;22.13;;;6.90;99.90;;;;;;5008369;28;20531;-69
2023/02/06 11:14:37;;;;;;;58.55;22.05;;;7.00;99.90;;;;;;5006978;28;20026;-69
2023/02/06 11:17:03;;;;;;;56.28;20.77;;;7.00;99.90;;;;;;4998618;28;20037;-71
2023/02/06 11:19:37;;;;;;;52.65;19.63;;;6.90;99.90;;;;;;4995451;28;20026;-69
2023/02/06 11:22:03;;;;;;;51.22;18.50;;;6.80;99.90;;;;;;5005471;28;20101;-70
2023/02/06 11:24:28;;;;;;;55.58;18.92;;;6.90;99.90;;;;;;5001919;28;20095;-70
2023/02/06 11:27:00;;;;;;;47.15;15.80;;;6.90;99.90;;;;;;5003357;28;20106;-70
2023/02/06 11:29:30;;;;;;;43.05;14.00;;;6.90;99.90;;;;;;5003221;28;20048;-71
2023/02/06 11:32:02;;;;;;;50.10;14.27;;;6.90;99.90;;;;;;4994207;28;20021;-69
2023/02/06 11:34:55;;;;;;;42.50;14.02;;;6.80;99.90;;;;;;5062767;28;20411;-69
2023/02/06 11:37:39;;;;;;;42.83;13.05;;;6.90;99.90;;;;;;5058215;28;20039;-69
2023/02/06 11:40:26;;;;;;;40.53;14.55;;;7.10;99.90;;;;;;5057576;28;20536;-69
2023/02/06 11:43:13;;;;;;;47.50;14.80;;;7.10;99.90;;;;;;5066122;28;20040;-70
2023/02/06 11:45:39;;;;;;;49.83;14.45;;;7.10;99.90;;;;;;5057330;28;20489;-69
2023/02/06 11:48:06;;;;;;;42.08;13.80;;;7.00;99.90;;;;;;5062690;28;20025;-69
2023/02/06 11:50:36;;;;;;;45.05;12.68;;;7.10;99.90;;;;;;5058057;28;20371;-69
2023/02/06 11:53:09;;;;;;;46.30;13.52;;;7.10;99.90;;;;;;5061609;28;20044;-69
2023/02/06 11:55:37;;;;;;;41.05;11.90;;;7.30;99.90;;;;;;5056301;28;20028;-68
2023/02/06 11:58:11;;;;;;;45.05;12.48;;;7.50;99.90;;;;;;5061704;28;20043;-69
2023/02/06 12:01:03;;;;;;;36.05;12.00;;;7.60;99.90;;;;;;5077438;28;20115;-69
2023/02/06 12:03:37;;;;;;;34.72;11.63;;;7.50;99.90;;;;;;5064331;28;20032;-70
2023/02/06 12:06:13;;;;;;;41.10;10.93;;;7.60;99.90;;;;;;5061797;28;20055;-69
2023/02/06 12:08:49;;;;;;;31.67;9.75;;;7.70;99.90;;;;;;5057648;28;20560;-69
2023/02/06 12:11:35;;;;;;;41.50;10.38;;;7.80;99.90;;;;;;5056784;28;20036;-74
2023/02/06 12:14:23;;;;;;;36.90;9.98;;;7.90;99.90;;;;;;5049532;28;20033;-69
2023/02/06 12:16:50;;;;;;;39.40;9.27;;;7.90;99.90;;;;;;5056825;28;20116;-69
2023/02/06 12:19:23;;;;;;;37.53;8.65;;;8.00;99.90;;;;;;5060352;28;20031;-70
2023/02/06 12:22:35;;;;;;;29.67;8.73;;;8.10;99.90;;;;;;5050683;28;20051;-69
2023/02/06 12:25:03;;;;;;;37.53;9.75;;;8.00;99.90;;;;;;5052173;28;20971;-69
2023/02/06 12:27:36;;;;;;;39.00;9.20;;;7.90;99.90;;;;;;5056081;28;20434;-69
2023/02/06 12:30:31;;;;;;;35.58;9.95;;;8.10;99.90;;;;;;5049527;28;20043;-69
2023/02/06 12:33:06;;;;;;;33.13;9.05;;;8.40;99.90;;;;;;5055244;28;20367;-69
2023/02/06 12:35:59;;;;;;;37.60;9.50;;;8.70;99.90;;;;;;5056749;28;20056;-69
2023/02/06 12:38:30;;;;;;;32.75;7.65;;;8.50;99.90;;;;;;5049642;28;20043;-69
2023/02/06 12:41:23;;;;;;;34.35;7.18;;;8.30;99.90;;;;;;5046292;28;20107;-69
2023/02/06 12:43:56;;;;;;;32.25;8.30;;;8.10;99.90;;;;;;5045371;28;20429;-69
2023/02/06 12:46:25;;;;;;;31.95;8.50;;;8.20;99.90;;;;;;5030248;28;20021;-69
2023/02/06 12:48:57;;;;;;;27.88;7.35;;;8.00;99.90;;;;;;5034172;28;20117;-69
2023/02/06 12:51:45;;;;;;;30.57;8.73;;;8.00;99.90;;;;;;5033739;28;20090;-69
2023/02/06 12:54:19;;;;;;;29.02;7.25;;;8.10;99.90;;;;;;5034530;28;20386;-69
2023/02/06 12:56:59;;;;;;;36.10;7.03;;;8.20;99.90;;;;;;5036778;28;20010;-69
2023/02/06 12:59:27;;;;;;;25.63;6.50;;;8.20;99.90;;;;;;5030247;28;20029;-69